Time;durP1;ratioP1;P1;durP2;ratioP2;P2;SDS_P1;SDS_P2;PMS_P1;PMS_P2;Temp;Humidity;BMP_temperature;BMP_pressure;BME280_temperature;BME280_humidity;BME280_pressure;Samples;Min_cycle;Max_cycle;Signal;HPM_P1;HPM_P2
2021/06/22 00:00:55;;;;;;;13.53;12.13;;;;;;;19.75;100.00;99159.41;1679680;83;21646;-62
2021/06/22 00:03:21;;;;;;;16.37;12.40;;;;;;;19.74;100.00;99156.43;1680982;83;21023;-63
2021/06/22 00:05:48;;;;;;;14.95;12.88;;;;;;;19.69;100.00;99161.48;1686823;83;21127;-61
2021/06/22 00:08:14;;;;;;;16.12;13.48;;;;;;;19.68;100.00;99165.91;1674086;83;20970;-62
2021/06/22 00:10:41;;;;;;;23.15;12.75;;;;;;;19.67;100.00;99162.39;1704741;81;21409;-62
2021/06/22 00:13:07;;;;;;;22.48;14.20;;;;;;;19.65;100.00;99166.53;1708710;81;21441;-61
2021/06/22 00:15:34;;;;;;;22.02;14.10;;;;;;;19.65;100.00;99157.80;1722815;81;20896;-61
2021/06/22 00:18:01;;;;;;;14.40;12.90;;;;;;;19.65;100.00;99155.64;1726709;80;21140;-62
2021/06/22 00:20:27;;;;;;;17.67;13.65;;;;;;;19.60;100.00;99148.45;1743192;80;20908;-62
2021/06/22 00:22:54;;;;;;;17.15;13.45;;;;;;;19.55;100.00;99156.78;1724672;81;21062;-61
2021/06/22 00:25:21;;;;;;;22.13;12.53;;;;;;;19.49;100.00;99149.89;1699045;82;21534;-61
2021/06/22 00:27:49;;;;;;;20.90;13.48;;;;;;;19.43;100.00;99149.84;1700833;81;21527;-61
2021/06/22 00:30:17;;;;;;;21.93;14.55;;;;;;;19.36;100.00;99157.13;1723075;81;21564;-61
2021/06/22 00:32:43;;;;;;;;;;;;;;;19.28;100.00;99156.01;1700436;82;21117;-61
2021/06/22 00:35:10;;;;;;;22.02;15.20;;;;;;;19.22;100.00;99158.64;1716256;81;20236;-61
2021/06/22 00:37:38;;;;;;;20.72;14.65;;;;;;;19.17;100.00;99156.65;1714759;81;20980;-60
2021/06/22 00:40:06;;;;;;;25.27;16.48;;;;;;;19.16;100.00;99153.70;1716349;81;21360;-62
2021/06/22 00:42:34;;;;;;;18.10;14.73;;;;;;;19.16;100.00;99152.34;1729735;80;21665;-61
2021/06/22 00:45:02;;;;;;;19.93;14.83;;;;;;;19.17;100.00;99152.56;1707379;82;21335;-61
2021/06/22 00:47:31;;;;;;;19.62;14.60;;;;;;;19.19;100.00;99154.41;1714236;82;21146;-60
2021/06/22 00:49:58;;;;;;;21.60;15.35;;;;;;;19.22;100.00;99155.92;1710515;82;21478;-62
2021/06/22 00:52:28;;;;;;;24.10;17.10;;;;;;;19.19;100.00;99154.41;1711607;81;20965;-61
2021/06/22 00:54:56;;;;;;;21.15;16.05;;;;;;;19.15;100.00;99150.72;1729502;81;21836;-60
2021/06/22 00:57:23;;;;;;;25.70;18.00;;;;;;;19.17;100.00;99151.20;1742845;80;20865;-61
2021/06/22 00:59:51;;;;;;;26.50;18.90;;;;;;;19.19;100.00;99152.48;1737256;80;21409;-61
2021/06/22 01:02:17;;;;;;;29.50;20.20;;;;;;;19.15;100.00;99151.52;1756878;80;21317;-61
2021/06/22 01:04:44;;;;;;;38.73;21.55;;;;;;;19.12;100.00;99155.45;1736986;81;20940;-61
2021/06/22 01:07:22;;;;;;;29.07;20.52;;;;;;;19.11;100.00;99153.30;1727850;81;21849;-61
2021/06/22 01:09:49;;;;;;;27.40;20.62;;;;;;;19.12;100.00;99161.69;1713822;81;21028;-60
2021/06/22 01:12:16;;;;;;;28.73;19.80;;;;;;;19.13;100.00;99159.76;1716031;81;21007;-62
2021/06/22 01:14:44;;;;;;;29.35;19.65;;;;;;;19.13;100.00;99155.11;1731920;80;20977;-62
2021/06/22 01:17:13;;;;;;;34.65;21.05;;;;;;;19.15;100.00;99156.16;1722474;81;20879;-61
2021/06/22 01:19:40;;;;;;;35.00;22.07;;;;;;;19.14;100.00;99155.94;1721840;81;21383;-61
2021/06/22 01:22:07;;;;;;;32.80;22.00;;;;;;;19.14;100.00;99161.38;1718803;80;21076;-61
2021/06/22 01:24:42;;;;;;;34.90;22.73;;;;;;;19.13;100.00;99157.83;1709398;82;21086;-61
2021/06/22 01:27:09;;;;;;;31.87;20.95;;;;;;;19.14;100.00;99161.38;1721511;82;21031;-61
2021/06/22 01:29:35;;;;;;;36.75;22.48;;;;;;;19.15;100.00;99160.24;1705170;80;21091;-61
2021/06/22 01:32:07;;;;;;;32.60;20.90;;;;;;;19.13;100.00;99156.47;1746766;80;21071;-61
2021/06/22 01:34:32;;;;;;;38.28;23.00;;;;;;;19.14;100.00;99154.01;1738547;80;20857;-62
2021/06/22 01:36:59;;;;;;;37.05;23.47;;;;;;;19.14;100.00;99154.58;1712196;81;20921;-64
2021/06/22 01:39:27;;;;;;;33.42;23.45;;;;;;;19.14;100.00;99149.13;1739433;81;21021;-63
2021/06/22 01:41:54;;;;;;;37.45;24.05;;;;;;;19.10;100.00;99153.04;1751897;81;21005;-63
2021/06/22 01:44:27;;;;;;;37.60;23.98;;;;;;;19.03;100.00;99156.26;1735977;80;21124;-65
2021/06/22 01:46:54;;;;;;;36.23;25.43;;;;;;;19.00;100.00;99152.00;1739916;81;20963;-64
2021/06/22 01:49:25;;;;;;;31.48;23.05;;;;;;;18.97;100.00;99155.37;1697378;80;21557;-63
2021/06/22 01:51:52;;;;;;;30.82;19.87;;;;;;;18.93;100.00;99155.19;1747060;80;21343;-63
2021/06/22 01:54:20;;;;;;;25.97;20.50;;;;;;;18.95;100.00;99150.80;1718111;81;20888;-62
2021/06/22 01:56:50;;;;;;;32.03;21.57;;;;;;;19.02;100.00;99156.56;1726146;81;21124;-63
2021/06/22 01:59:18;;;;;;;26.70;19.48;;;;;;;19.09;100.00;99156.89;1728183;81;21086;-63
2021/06/22 02:01:55;;;;;;;27.60;19.93;;;;;;;19.12;100.00;99156.25;1707030;81;20926;-63
2021/06/22 02:04:27;;;;;;;25.02;19.90;;;;;;;19.14;100.00;99158.09;1715541;81;21076;-62
2021/06/22 02:06:56;;;;;;;31.42;21.50;;;;;;;19.15;100.00;99167.05;1716874;82;21484;-62
2021/06/22 02:09:31;;;;;;;25.17;20.43;;;;;;;19.17;100.00;99154.72;1712411;81;21145;-64
2021/06/22 02:11:59;;;;;;;26.80;20.67;;;;;;;19.18;100.00;99159.06;1717346;81;20853;-62
2021/06/22 02:14:26;;;;;;;32.33;21.40;;;;;;;19.18;100.00;99160.42;1706166;82;21470;-62
2021/06/22 02:16:53;;;;;;;23.40;19.45;;;;;;;19.18;100.00;99160.95;1722739;82;21174;-62
2021/06/22 02:19:20;;;;;;;25.92;21.02;;;;;;;19.22;100.00;99153.77;1723462;82;21043;-62
2021/06/22 02:21:47;;;;;;;37.67;19.87;;;;;;;19.25;100.00;99151.19;1736706;81;21777;-63
2021/06/22 02:24:15;;;;;;;23.80;20.25;;;;;;;19.29;100.00;99145.92;1724140;80;20887;-64
2021/06/22 02:26:42;;;;;;;22.17;19.35;;;;;;;19.32;100.00;99147.98;1678083;83;21657;-63
2021/06/22 02:29:10;;;;;;;30.72;19.50;;;;;;;19.33;100.00;99141.45;1681753;83;21646;-64
2021/06/22 02:31:37;;;;;;;29.32;20.70;;;;;;;19.35;100.00;99147.91;1707677;82;21538;-65
2021/06/22 02:34:04;;;;;;;30.30;18.80;;;;;;;19.38;100.00;99154.09;1714846;81;21159;-63
2021/06/22 02:36:32;;;;;;;26.15;19.70;;;;;;;19.40;100.00;99158.09;1678859;82;25211;-63
2021/06/22 02:38:58;;;;;;;21.57;19.25;;;;;;;19.43;100.00;99158.00;1747122;80;21067;-63
2021/06/22 02:41:25;;;;;;;25.43;20.92;;;;;;;19.46;100.00;99157.34;1700812;82;21479;-62
2021/06/22 02:43:53;;;;;;;36.68;23.15;;;;;;;19.51;100.00;99155.81;1721608;81;21033;-61
2021/06/22 02:46:20;;;;;;;31.82;22.67;;;;;;;19.56;100.00;99152.13;1714527;82;23028;-63
2021/06/22 02:48:49;;;;;;;;;;;;;;;19.62;100.00;99142.12;1694553;81;21425;-64
2021/06/22 02:51:15;;;;;;;31.02;22.65;;;;;;;19.66;100.00;99147.13;1710973;80;20201;-64
2021/06/22 02:53:47;;;;;;;34.45;22.48;;;;;;;19.67;100.00;99141.98;1725455;81;20982;-63
2021/06/22 02:56:14;;;;;;;30.95;19.27;;;;;;;19.70;100.00;99144.61;1716120;81;20862;-62
2021/06/22 02:58:42;;;;;;;;;;;;;;;19.77;100.00;99146.81;1728646;80;21174;-64
2021/06/22 03:01:11;;;;;;;27.07;18.12;;;;;;;19.83;100.00;99156.42;1711744;81;20202;-64
2021/06/22 03:03:38;;;;;;;25.20;18.32;;;;;;;19.89;100.00;99149.13;1705952;82;21024;-63
2021/06/22 03:06:06;;;;;;;;;;;;;;;19.93;100.00;99149.26;1721824;81;21008;-64
2021/06/22 03:08:34;;;;;;;26.82;19.82;;;;;;;19.97;100.00;99141.25;1719509;81;20171;-64
2021/06/22 03:11:03;;;;;;;30.05;19.30;;;;;;;20.05;100.00;99137.69;1719838;81;22544;-64
2021/06/22 03:13:29;;;;;;;29.05;19.00;;;;;;;20.17;100.00;99135.06;1687286;83;21551;-63
2021/06/22 03:15:56;;;;;;;25.70;19.07;;;;;;;20.29;100.00;99131.65;1691005;81;20881;-64
2021/06/22 03:18:23;;;;;;;26.00;18.40;;;;;;;20.39;100.00;99131.84;1738078;81;20981;-63
2021/06/22 03:20:50;;;;;;;24.97;17.13;;;;;;;20.46;100.00;99130.76;1712135;81;20948;-64
2021/06/22 03:23:18;;;;;;;27.60;18.92;;;;;;;20.52;100.00;99137.60;1716425;81;21438;-64
2021/06/22 03:25:46;;;;;;;34.20;18.95;;;;;;;20.56;100.00;99130.41;1730185;81;21053;-65
2021/06/22 03:28:13;;;;;;;34.40;18.92;;;;;;;20.65;100.00;99124.34;1746561;80;21589;-64
2021/06/22 03:30:43;;;;;;;27.55;18.00;;;;;;;20.80;100.00;99122.13;1724801;81;21385;-65
2021/06/22 03:33:10;;;;;;;30.50;19.42;;;;;;;20.96;100.00;99123.13;1732081;81;21052;-64
2021/06/22 03:35:37;;;;;;;30.15;18.37;;;;;;;21.09;100.00;99117.98;1709827;81;21031;-63
2021/06/22 03:38:04;;;;;;;21.97;17.35;;;;;;;21.11;100.00;99118.42;1711691;81;21374;-62
2021/06/22 03:40:32;;;;;;;27.77;16.07;;;;;;;21.11;100.00;99118.42;1718069;81;20941;-62
2021/06/22 03:42:59;;;;;;;30.65;15.25;;;;;;;21.17;100.00;99122.56;1709103;81;21379;-63
2021/06/22 03:45:27;;;;;;;20.43;14.53;;;;;;;21.26;100.00;99123.83;1724840;80;20993;-63
2021/06/22 03:47:54;;;;;;;28.67;15.38;;;;;;;21.31;100.00;99120.91;1731775;81;21121;-63
2021/06/22 03:50:20;;;;;;;33.78;14.13;;;;;;;21.35;100.00;99130.58;1723133;81;21533;-63
2021/06/22 03:52:47;;;;;;;25.08;13.88;;;;;;;21.43;100.00;99123.47;1721461;81;20997;-64
2021/06/22 03:55:29;;;;;;;23.02;13.93;;;;;;;21.44;100.00;99129.17;1742060;81;21090;-63
2021/06/22 03:58:06;;;;;;;26.80;14.28;;;;;;;21.42;100.00;99130.08;1717209;81;21071;-64
2021/06/22 04:00:34;;;;;;;21.20;13.20;;;;;;;21.44;100.00;99134.06;1741150;80;22448;-64
2021/06/22 04:03:04;;;;;;;31.65;13.60;;;;;;;21.50;100.00;99148.30;1718721;81;20988;-64
2021/06/22 04:05:32;;;;;;;28.27;13.58;;;;;;;21.51;100.00;99163.53;1725507;80;21021;-63
2021/06/22 04:08:01;;;;;;;35.98;14.18;;;;;;;21.59;100.00;99169.49;1715742;81;21461;-64
2021/06/22 04:10:28;;;;;;;;;;;;;;;21.65;100.00;99180.42;1708805;81;21076;-65
2021/06/22 04:12:56;;;;;;;38.48;14.98;;;;;;;21.76;100.00;99188.44;1735568;80;21115;-63
2021/06/22 04:15:22;;;;;;;33.78;15.15;;;;;;;21.92;100.00;99191.31;1722374;81;21369;-63
2021/06/22 04:17:50;;;;;;;25.90;14.03;;;;;;;21.84;100.00;99190.27;1722959;80;21076;-63
2021/06/22 04:20:17;;;;;;;29.82;14.78;;;;;;;21.80;100.00;99183.08;1701303;82;21606;-63
2021/06/22 04:22:44;;;;;;;40.37;13.47;;;;;;;21.87;100.00;99190.16;1685068;82;21503;-63
2021/06/22 04:25:14;;;;;;;52.98;15.30;;;;;;;21.98;100.00;99180.41;1710444;81;21141;-63
2021/06/22 04:27:42;;;;;;;59.75;17.00;;;;;;;22.11;100.00;99185.89;1716326;81;20869;-65
2021/06/22 04:30:10;;;;;;;62.27;15.58;;;;;;;22.24;100.00;99187.52;1719781;81;21363;-63
2021/06/22 04:32:38;;;;;;;53.63;14.13;;;;;;;22.29;100.00;99185.13;1729790;80;21019;-63
2021/06/22 04:35:06;;;;;;;78.60;16.97;;;;;;;22.41;100.00;99182.41;1737071;81;21136;-62
2021/06/22 04:37:33;;;;;;;64.67;15.38;;;;;;;22.58;100.00;99180.80;1729086;80;21266;-63
2021/06/22 04:40:00;;;;;;;58.42;16.25;;;;;;;22.72;100.00;99194.14;1716929;81;21340;-63
2021/06/22 04:42:26;;;;;;;48.30;14.75;;;;;;;22.92;100.00;99197.87;1719918;81;21114;-63
2021/06/22 04:44:53;;;;;;;75.45;16.25;;;;;;;23.10;100.00;99197.88;1718223;81;20992;-62
2021/06/22 04:47:20;;;;;;;79.53;15.83;;;;;;;23.29;100.00;99190.96;1711412;81;21525;-63
2021/06/22 04:49:47;;;;;;;72.80;15.63;;;;;;;23.41;100.00;99190.92;1720971;81;21436;-63
2021/06/22 04:52:14;;;;;;;76.03;16.03;;;;;;;23.50;100.00;99190.78;1724444;81;20865;-66
2021/06/22 04:54:41;;;;;;;85.03;17.82;;;;;;;23.52;100.00;99185.75;1731214;81;20925;-64
2021/06/22 04:57:09;;;;;;;90.70;16.62;;;;;;;23.66;100.00;99185.33;1729914;80;22057;-65
2021/06/22 04:59:36;;;;;;;81.22;17.48;;;;;;;23.96;100.00;99189.89;1723117;81;21071;-65
2021/06/22 05:02:03;;;;;;;94.15;16.50;;;;;;;24.23;100.00;99192.34;1727455;80;21710;-65
2021/06/22 05:04:31;;;;;;;107.65;17.82;;;;;;;24.39;100.00;99199.97;1741867;81;21096;-65
2021/06/22 05:06:58;;;;;;;94.92;18.55;;;;;;;24.42;100.00;99194.34;1741371;81;20845;-67
2021/06/22 05:09:25;;;;;;;85.57;18.37;;;;;;;24.64;100.00;99195.68;1741468;80;21209;-65
2021/06/22 05:11:52;;;;;;;111.30;20.57;;;;;;;24.89;100.00;99196.27;1745794;80;21139;-65
2021/06/22 05:14:19;;;;;;;102.03;17.60;;;;;;;25.16;100.00;99196.42;1734982;80;21831;-65
2021/06/22 05:16:48;;;;;;;146.68;19.42;;;;;;;25.41;100.00;99196.99;1708468;80;21020;-65
2021/06/22 05:19:15;;;;;;;89.42;17.87;;;;;;;25.48;100.00;99202.63;1724494;80;21019;-65
2021/06/22 05:21:41;;;;;;;111.70;18.73;;;;;;;25.60;100.00;99203.86;1739696;80;21759;-63
2021/06/22 05:24:10;;;;;;;130.37;20.43;;;;;;;25.53;100.00;99206.46;1726459;80;20957;-65
2021/06/22 05:26:37;;;;;;;103.60;20.12;;;;;;;25.68;100.00;99206.16;1731400;81;21618;-64
2021/06/22 05:29:04;;;;;;;90.55;19.55;;;;;;;25.96;100.00;99204.53;1728983;81;20980;-65
2021/06/22 05:31:30;;;;;;;97.30;19.77;;;;;;;26.25;100.00;99207.79;1727146;81;21019;-66
2021/06/22 05:33:57;;;;;;;79.53;14.50;;;;;;;26.51;100.00;99200.16;1717704;81;21060;-65
2021/06/22 05:36:23;;;;;;;98.65;17.82;;;;;;;26.52;100.00;99198.98;1703929;81;20988;-67
2021/06/22 05:38:50;;;;;;;95.33;17.30;;;;;;;26.28;100.00;99202.33;1716342;80;21135;-66
2021/06/22 05:41:17;;;;;;;112.57;18.17;;;;;;;26.17;100.00;99197.84;1710131;80;21245;-66
2021/06/22 05:43:43;;;;;;;111.70;17.82;;;;;;;26.20;100.00;99202.59;1721376;81;21633;-65
2021/06/22 05:46:10;;;;;;;74.27;13.72;;;;;;;26.19;100.00;99197.68;1722311;81;21002;-66
2021/06/22 05:48:37;;;;;;;105.73;18.17;;;;;;;26.32;100.00;99196.91;1705140;81;21427;-67
2021/06/22 05:51:04;;;;;;;106.80;18.05;;;;;;;26.64;100.00;99200.78;1741301;81;21066;-67
2021/06/22 05:53:32;;;;;;;112.52;16.73;;;;;;;27.02;100.00;99203.89;1740721;80;20920;-68
2021/06/22 05:55:59;;;;;;;96.93;15.83;;;;;;;27.33;100.00;99207.45;1736065;79;21372;-68
2021/06/22 05:58:26;;;;;;;103.97;16.50;;;;;;;27.58;100.00;99210.50;1732038;80;21758;-68
2021/06/22 06:00:52;;;;;;;108.60;18.00;;;;;;;27.42;100.00;99213.48;1729572;80;21062;-68
2021/06/22 06:03:19;;;;;;;70.40;14.28;;;;;;;27.35;100.00;99212.01;1724742;80;21200;-67
2021/06/22 06:05:47;;;;;;;91.67;16.25;;;;;;;27.57;100.00;99210.30;1692481;81;21003;-67
2021/06/22 06:08:14;;;;;;;94.65;17.37;;;;;;;27.62;100.00;99213.31;1725546;81;21169;-68
2021/06/22 06:10:40;;;;;;;96.45;16.93;;;;;;;27.59;100.00;99213.48;1728724;82;21450;-68
2021/06/22 06:13:07;;;;;;;98.17;17.45;;;;;;;27.81;100.00;99214.51;1747091;80;21055;-67
2021/06/22 06:15:34;;;;;;;85.92;15.15;;;;;;;27.85;100.00;99220.08;1706904;80;21113;-68
2021/06/22 06:18:00;;;;;;;112.83;16.27;;;;;;;27.86;100.00;99206.52;1728011;80;21508;-68
2021/06/22 06:20:28;;;;;;;100.00;16.27;;;;;;;28.04;100.00;99206.68;1719354;81;20980;-68
2021/06/22 06:22:55;;;;;;;100.38;17.05;;;;;;;27.94;100.00;99204.81;1716658;82;21013;-69
2021/06/22 06:25:22;;;;;;;;;;;;;;;27.80;100.00;99208.17;1720369;81;20921;-68
2021/06/22 06:27:55;;;;;;;79.00;15.48;;;;;;;27.84;100.00;99201.37;1707964;80;21009;-68
2021/06/22 06:30:25;;;;;;;75.35;14.00;;;;;;;27.90;100.00;99200.42;1724319;80;21055;-65
2021/06/22 06:32:53;;;;;;;81.40;14.25;;;;;;;28.14;100.00;99200.47;1774100;80;21566;-66
2021/06/22 06:35:20;;;;;;;84.58;13.48;;;;;;;28.38;100.00;99199.09;1743389;80;21060;-62
2021/06/22 06:37:47;;;;;;;92.20;13.43;;;;;;;28.48;96.52;99196.24;1702584;81;21016;-63
2021/06/22 06:40:16;;;;;;;87.78;14.78;;;;;;;28.44;95.83;99193.41;1703924;80;21201;-62
2021/06/22 06:42:42;;;;;;;79.40;13.98;;;;;;;28.55;96.93;99187.42;1712400;82;20901;-63
2021/06/22 06:45:11;;;;;;;85.75;13.38;;;;;;;28.84;94.62;99183.47;1719203;81;21090;-63
2021/06/22 06:47:37;;;;;;;67.97;11.33;;;;;;;28.99;85.26;99183.74;1709380;81;21084;-62
2021/06/22 06:50:07;;;;;;;74.60;12.70;;;;;;;28.95;84.39;99178.00;1711975;81;20963;-62
2021/06/22 06:52:33;;;;;;;63.17;11.03;;;;;;;28.77;82.07;99177.31;1750072;81;21173;-62
2021/06/22 06:55:00;;;;;;;68.07;10.93;;;;;;;28.90;81.81;99175.60;1735275;81;20987;-62
2021/06/22 06:57:26;;;;;;;59.67;10.17;;;;;;;28.82;77.92;99174.77;1725450;80;21093;-61
2021/06/22 06:59:53;;;;;;;52.13;15.80;;;;;;;28.62;78.56;99175.64;1725197;81;21257;-63
2021/06/22 07:02:20;;;;;;;75.97;15.25;;;;;;;28.78;78.22;99169.22;1723297;81;20919;-62
2021/06/22 07:04:47;;;;;;;62.98;12.98;;;;;;;28.69;79.20;99171.55;1725704;81;21168;-63
2021/06/22 07:07:13;;;;;;;70.87;12.98;;;;;;;28.81;79.76;99173.17;1727484;80;20959;-63
2021/06/22 07:09:41;;;;;;;59.20;10.83;;;;;;;29.02;81.79;99169.15;1725650;81;21434;-63
2021/06/22 07:12:09;;;;;;;67.55;12.20;;;;;;;29.16;78.69;99166.30;1752867;80;20965;-63
2021/06/22 07:14:36;;;;;;;56.10;11.10;;;;;;;29.17;77.27;99166.48;1739114;80;20984;-64
2021/06/22 07:17:03;;;;;;;54.27;10.70;;;;;;;29.21;76.82;99161.77;1733986;80;21031;-65
2021/06/22 07:19:30;;;;;;;76.12;11.10;;;;;;;29.48;74.97;99151.98;1729275;80;20951;-66
2021/06/22 07:21:56;;;;;;;48.63;10.28;;;;;;;29.63;75.23;99157.55;1706871;82;21221;-66
2021/06/22 07:24:23;;;;;;;45.70;9.65;;;;;;;29.83;74.75;99149.71;1725580;82;21596;-66
2021/06/22 07:26:50;;;;;;;51.40;9.98;;;;;;;29.80;72.66;99145.75;1713937;82;21043;-66
2021/06/22 07:29:16;;;;;;;62.20;9.90;;;;;;;29.83;72.76;99151.09;1680870;83;21892;-65
2021/06/22 07:31:43;;;;;;;48.68;9.65;;;;;;;29.86;74.74;99146.15;1726324;81;21410;-66
2021/06/22 07:34:10;;;;;;;57.20;9.63;;;;;;;30.04;70.21;99145.58;1721789;81;21075;-65
2021/06/22 07:36:36;;;;;;;72.78;11.78;;;;;;;29.98;69.41;99151.30;1706894;82;21060;-65
2021/06/22 07:39:04;;;;;;;56.70;10.93;;;;;;;29.98;70.92;99154.66;1750657;80;21581;-67
2021/06/22 07:41:30;;;;;;;38.55;8.53;;;;;;;30.04;70.54;99158.03;1728970;81;21117;-65
2021/06/22 07:43:57;;;;;;;60.60;8.60;;;;;;;30.29;66.47;99159.44;1708300;82;21020;-66
2021/06/22 07:46:24;;;;;;;42.93;7.70;;;;;;;30.29;66.47;99159.44;1715729;81;21474;-64
2021/06/22 07:48:51;;;;;;;50.70;9.28;;;;;;;30.19;65.80;99163.58;1741435;81;21068;-61
2021/06/22 07:51:17;;;;;;;51.30;9.58;;;;;;;30.19;66.00;99160.80;1738889;80;20878;-61
2021/06/22 07:53:45;;;;;;;42.50;8.78;;;;;;;30.09;67.49;99165.94;1738680;80;21210;-61
2021/06/22 07:56:11;;;;;;;45.17;7.77;;;;;;;30.20;68.64;99160.98;1747569;81;20973;-63
2021/06/22 07:58:38;;;;;;;;;;;;;;;30.35;65.26;99162.59;1745633;81;20992;-65
2021/06/22 08:01:05;;;;;;;45.07;7.43;;;;;;;30.36;63.63;99168.34;1708711;81;20082;-63
2021/06/22 08:03:31;;;;;;;55.95;9.10;;;;;;;30.37;63.86;99167.73;1705542;81;21064;-64
2021/06/22 08:05:59;;;;;;;42.55;7.30;;;;;;;30.45;64.45;99161.00;1724689;81;22030;-66
2021/06/22 08:08:26;;;;;;;55.05;8.85;;;;;;;30.51;64.93;99169.89;1749591;81;20965;-66
2021/06/22 08:10:55;;;;;;;49.63;9.35;;;;;;;30.47;64.31;99169.70;1748682;81;21111;-64
2021/06/22 08:13:22;;;;;;;48.48;8.68;;;;;;;30.62;65.50;99173.23;1743516;81;20878;-65
2021/06/22 08:15:51;;;;;;;51.63;9.00;;;;;;;30.79;62.16;99168.25;1743634;81;20889;-67
2021/06/22 08:18:18;;;;;;;50.35;8.50;;;;;;;30.81;62.71;99171.42;1698966;81;22218;-64
2021/06/22 08:20:44;;;;;;;53.75;8.60;;;;;;;31.02;64.12;99173.38;1707711;81;21207;-66
2021/06/22 08:23:11;;;;;;;45.63;8.00;;;;;;;31.15;60.85;99176.49;1697136;81;28459;-65
2021/06/22 08:25:38;;;;;;;42.93;7.63;;;;;;;30.98;60.64;99175.36;1702853;81;21050;-65
2021/06/22 08:28:05;;;;;;;;;;;;;;;31.09;60.77;99180.85;1728157;81;21499;-65
2021/06/22 08:30:31;;;;;;;49.77;8.25;;;;;;;31.32;59.82;99183.16;1716928;81;21711;-65
2021/06/22 08:32:58;;;;;;;62.13;8.63;;;;;;;31.47;59.60;99188.06;1714898;81;20991;-66
2021/06/22 08:35:25;;;;;;;52.75;8.58;;;;;;;31.68;58.90;99187.95;1717378;81;21040;-65
2021/06/22 08:37:53;;;;;;;48.45;7.10;;;;;;;31.73;58.98;99190.91;1713896;81;21434;-65
2021/06/22 08:40:19;;;;;;;41.23;7.35;;;;;;;32.01;57.37;99188.55;1715912;81;21067;-66
2021/06/22 08:42:46;;;;;;;61.55;20.85;;;;;;;32.15;53.19;99190.44;1711847;81;21118;-68
2021/06/22 08:45:15;;;;;;;83.22;23.22;;;;;;;32.03;52.27;99197.27;1725458;81;20937;-64
2021/06/22 08:47:42;;;;;;;33.60;13.38;;;;;;;31.77;49.35;99191.05;1710978;82;20937;-66
2021/06/22 08:50:10;;;;;;;17.85;4.85;;;;;;;31.59;47.79;99195.33;1726976;81;21674;-67
2021/06/22 08:52:37;;;;;;;116.50;13.25;;;;;;;31.37;45.50;99193.83;1733538;81;21178;-66
2021/06/22 08:55:07;;;;;;;94.07;9.95;;;;;;;31.12;46.02;99188.39;1717708;81;23198;-67
2021/06/22 08:57:34;;;;;;;34.27;6.25;;;;;;;30.82;46.86;99184.67;1720877;81;21025;-67
2021/06/22 09:00:01;;;;;;;45.88;13.05;;;;;;;30.36;46.52;99174.48;1735375;80;20993;-66
2021/06/22 09:02:28;;;;;;;43.53;9.83;;;;;;;30.10;48.63;99172.26;1721734;81;21438;-65
2021/06/22 09:04:56;;;;;;;44.70;7.92;;;;;;;29.97;49.45;99170.48;1726859;80;21117;-66
2021/06/22 09:07:48;;;;;;;42.27;6.15;;;;;;;29.86;49.73;99169.09;1690155;80;21100;-65
2021/06/22 09:10:29;;;;;;;28.20;6.50;;;;;;;29.81;50.71;99166.69;1748799;80;21008;-65
2021/06/22 09:12:59;;;;;;;25.85;5.03;;;;;;;29.94;51.97;99162.16;1743015;81;21383;-65
2021/06/22 09:15:29;;;;;;;119.80;10.88;;;;;;;30.35;49.77;99155.67;1732943;80;21688;-63
2021/06/22 09:17:57;;;;;;;24.10;4.28;;;;;;;30.76;49.96;99164.91;1708417;81;20994;-65
2021/06/22 09:20:41;;;;;;;36.88;4.75;;;;;;;31.28;48.48;99156.81;1719892;82;21867;-66
2021/06/22 09:23:14;;;;;;;42.55;5.83;;;;;;;31.53;47.18;99151.19;1717332;81;20988;-66
2021/06/22 09:25:41;;;;;;;55.55;6.60;;;;;;;31.53;48.31;99161.47;1742403;81;21087;-65
2021/06/22 09:28:08;;;;;;;48.78;7.05;;;;;;;31.72;46.75;99158.79;1738758;81;20964;-66
2021/06/22 09:30:52;;;;;;;50.70;6.72;;;;;;;31.68;44.42;99160.79;1743876;80;21020;-66
2021/06/22 09:33:29;;;;;;;53.30;7.90;;;;;;;31.36;43.87;99159.77;1736702;79;21107;-65
2021/06/22 09:36:21;;;;;;;41.00;6.22;;;;;;;31.13;44.45;99158.86;1721720;80;20953;-65
2021/06/22 09:38:59;;;;;;;41.18;7.22;;;;;;;30.95;44.97;99156.17;1723775;80;20868;-62
2021/06/22 09:41:31;;;;;;;35.03;6.40;;;;;;;30.90;45.71;99152.43;1714963;80;21115;-66
2021/06/22 09:44:08;;;;;;;63.42;8.43;;;;;;;30.81;47.08;99146.48;1719741;80;21009;-63
2021/06/22 09:46:51;;;;;;;62.10;8.63;;;;;;;30.81;47.24;99143.72;1724751;80;21143;-64
2021/06/22 09:49:31;;;;;;;49.88;7.90;;;;;;;30.82;45.73;99139.77;1720991;80;20993;-62
2021/06/22 09:52:09;;;;;;;65.72;9.83;;;;;;;30.77;47.14;99131.84;1648699;85;21074;-62
2021/06/22 09:54:52;;;;;;;69.40;10.32;;;;;;;30.79;46.00;99134.22;1644339;84;20965;-62
2021/06/22 09:57:25;;;;;;;55.90;10.90;;;;;;;31.41;45.83;99133.64;1642845;85;21114;-64
2021/06/22 10:00:07;;;;;;;76.57;11.22;;;;;;;31.63;44.14;99134.30;1669730;83;21153;-62
2021/06/22 10:02:55;;;;;;;79.03;11.25;;;;;;;31.73;43.78;99143.14;1669739;83;20960;-64
2021/06/22 10:05:21;;;;;;;70.12;10.20;;;;;;;31.89;43.24;99132.12;1676704;83;20961;-63
2021/06/22 10:07:59;;;;;;;82.57;13.10;;;;;;;32.07;42.13;99132.81;1685466;82;20979;-64
2021/06/22 10:10:35;;;;;;;94.15;13.10;;;;;;;32.06;42.59;99136.77;1676967;84;21158;-64
2021/06/22 10:13:03;;;;;;;99.62;13.35;;;;;;;32.27;40.51;99140.57;1680713;82;21963;-65
2021/06/22 10:15:30;;;;;;;102.32;14.23;;;;;;;32.19;40.10;99122.59;1711990;81;20920;-66
2021/06/22 10:17:57;;;;;;;96.08;13.62;;;;;;;32.07;39.93;99117.55;1673123;82;20985;-63
2021/06/22 10:20:23;;;;;;;96.67;11.50;;;;;;;32.02;40.65;99127.67;1720523;81;21072;-66
2021/06/22 10:22:51;;;;;;;104.92;14.65;;;;;;;31.96;38.77;99124.55;1715687;81;21090;-66
2021/06/22 10:25:19;;;;;;;91.12;14.65;;;;;;;32.01;39.85;99121.94;1716871;81;21210;-66
2021/06/22 10:27:50;;;;;;;123.90;17.48;;;;;;;32.05;40.35;99116.37;1704733;81;21652;-66
2021/06/22 10:30:20;;;;;;;109.80;15.40;;;;;;;32.02;38.77;99129.05;1713497;81;20996;-66
2021/06/22 10:32:46;;;;;;;147.85;20.23;;;;;;;32.09;39.56;99127.61;1686661;83;21513;-66
2021/06/22 10:35:15;;;;;;;132.32;17.17;;;;;;;32.20;40.73;99123.38;1701335;82;21074;-67
2021/06/22 10:37:48;;;;;;;126.10;19.67;;;;;;;32.46;39.97;99113.58;1709131;81;21434;-62
2021/06/22 10:40:24;;;;;;;162.15;21.02;;;;;;;32.51;37.61;99116.54;1720105;81;21136;-64
2021/06/22 10:42:55;;;;;;;158.63;20.57;;;;;;;32.57;39.06;99117.68;1715735;82;20929;-63
2021/06/22 10:45:22;;;;;;;146.93;20.08;;;;;;;32.61;38.15;99110.10;1724618;81;21036;-64
2021/06/22 10:47:49;;;;;;;144.40;18.73;;;;;;;32.55;39.81;99111.74;1713294;81;21093;-64
2021/06/22 10:50:27;;;;;;;176.57;22.40;;;;;;;32.60;40.12;99113.46;1690429;82;22308;-64
2021/06/22 10:53:02;;;;;;;162.07;22.17;;;;;;;32.56;36.53;99114.12;1718491;81;20960;-63
2021/06/22 10:55:43;;;;;;;158.87;21.83;;;;;;;32.69;37.47;99125.48;1710454;81;21043;-65
2021/06/22 10:58:14;;;;;;;180.65;23.05;;;;;;;32.69;35.77;99113.59;1733540;81;20996;-64
2021/06/22 11:00:51;;;;;;;235.17;29.42;;;;;;;32.84;35.95;99122.72;1719975;81;21147;-65
2021/06/22 11:03:34;;;;;;;217.25;28.42;;;;;;;32.89;33.42;99124.26;1727407;80;21071;-65
2021/06/22 11:06:14;;;;;;;199.15;27.62;;;;;;;33.01;33.64;99126.48;1720724;81;20976;-64
2021/06/22 11:08:43;;;;;;;255.45;30.80;;;;;;;33.02;34.79;99125.27;1739745;81;20861;-64
2021/06/22 11:11:15;;;;;;;173.72;23.18;;;;;;;33.24;35.33;99125.03;1729372;80;21142;-64
2021/06/22 11:13:57;;;;;;;156.47;22.93;;;;;;;33.34;34.05;99118.53;1711305;81;20993;-65
2021/06/22 11:16:29;;;;;;;166.62;22.40;;;;;;;33.43;33.86;99126.37;1722154;80;21110;-64
2021/06/22 11:19:09;;;;;;;274.95;35.92;;;;;;;33.33;32.96;99121.75;1734709;81;20973;-64
2021/06/22 11:21:46;;;;;;;174.12;22.45;;;;;;;33.29;32.66;99122.59;1712203;81;21009;-64